Time;durP1;ratioP1;P1;durP2;ratioP2;P2;SDS_P1;SDS_P2;PMS_P1;PMS_P2;Temp;Humidity;BMP_temperature;BMP_pressure;BME280_temperature;BME280_humidity;BME280_pressure;Samples;Min_cycle;Max_cycle;Signal;HPM_P1;HPM_P2
2022/11/06 00:00:53;;;;;;;25.42;23.20;;;13.80;99.90;;;;;;4962274;28;20034;-82
2022/11/06 00:03:19;;;;;;;24.45;22.63;;;13.90;99.90;;;;;;4977248;28;20039;-82
2022/11/06 00:08:37;;;;;;;27.23;24.42;;;13.90;99.90;;;;;;4974015;28;20494;-82
2022/11/06 00:11:08;;;;;;;25.77;23.80;;;13.90;99.90;;;;;;4991076;28;20038;-82
2022/11/06 00:13:35;;;;;;;25.63;23.67;;;13.90;99.90;;;;;;4973981;28;20043;-82
2022/11/06 00:16:05;;;;;;;25.10;22.98;;;13.90;99.90;;;;;;4980946;28;20046;-82
2022/11/06 00:18:32;;;;;;;25.35;23.23;;;14.00;99.90;;;;;;4988371;28;20054;-82
2022/11/06 00:20:58;;;;;;;25.90;23.80;;;14.00;99.90;;;;;;4963874;28;20038;-82
2022/11/06 00:23:24;;;;;;;23.67;21.73;;;14.00;99.90;;;;;;4972953;28;20399;-82
2022/11/06 00:25:54;;;;;;;25.58;23.55;;;14.00;99.90;;;;;;4968487;28;20027;-82
2022/11/06 00:28:20;;;;;;;24.08;22.08;;;13.90;99.90;;;;;;4971598;28;20034;-81
2022/11/06 00:30:46;;;;;;;23.48;21.65;;;13.80;99.90;;;;;;4987706;28;20057;-82
2022/11/06 00:33:13;;;;;;;24.92;22.50;;;13.70;99.90;;;;;;4979210;28;20384;-82
2022/11/06 00:35:39;;;;;;;24.33;22.40;;;13.70;99.90;;;;;;4973691;28;20039;-83
2022/11/06 00:38:05;;;;;;;26.33;24.75;;;13.70;99.90;;;;;;4960757;28;20050;-81
2022/11/06 00:40:31;;;;;;;28.40;26.20;;;13.70;99.90;;;;;;4976342;28;20026;-82
2022/11/06 00:42:57;;;;;;;25.70;23.67;;;13.70;99.90;;;;;;4979424;28;20403;-82
2022/11/06 00:45:24;;;;;;;25.10;23.25;;;13.60;99.90;;;;;;4964040;28;20039;-82
2022/11/06 00:47:50;;;;;;;26.33;24.45;;;13.60;99.90;;;;;;4954227;28;20034;-82
2022/11/06 00:50:17;;;;;;;25.52;23.38;;;13.70;99.90;;;;;;4984773;28;20049;-82
2022/11/06 00:52:43;;;;;;;25.67;23.25;;;13.60;99.90;;;;;;4989762;28;20047;-82
2022/11/06 00:55:13;;;;;;;24.13;22.10;;;13.60;99.90;;;;;;4951702;28;20027;-82
2022/11/06 00:57:39;;;;;;;22.70;20.92;;;13.70;99.90;;;;;;4989037;28;20037;-82
2022/11/06 01:00:06;;;;;;;25.70;23.85;;;13.60;99.90;;;;;;4981062;28;20522;-82
2022/11/06 01:02:32;;;;;;;26.27;24.48;;;13.60;99.90;;;;;;4982804;28;20398;-81
2022/11/06 01:04:58;;;;;;;23.83;22.02;;;13.60;99.90;;;;;;4964698;28;20031;-82
2022/11/06 01:07:24;;;;;;;23.65;21.95;;;13.60;99.90;;;;;;4975189;28;20391;-82
2022/11/06 01:09:50;;;;;;;24.05;22.45;;;13.50;99.90;;;;;;4975027;28;20041;-82
2022/11/06 01:12:17;;;;;;;25.17;23.45;;;13.60;99.90;;;;;;4962721;28;20039;-82
2022/11/06 01:14:43;;;;;;;23.98;22.02;;;13.70;99.90;;;;;;4961200;28;20047;-82
2022/11/06 01:17:09;;;;;;;24.00;21.63;;;13.70;99.90;;;;;;4954684;28;20047;-82
2022/11/06 01:19:35;;;;;;;21.35;19.58;;;13.70;99.90;;;;;;4988758;28;20627;-82
2022/11/06 01:22:02;;;;;;;20.50;19.02;;;13.70;99.90;;;;;;4977538;28;20471;-82
2022/11/06 01:24:28;;;;;;;20.90;19.27;;;13.60;99.90;;;;;;4990655;28;20029;-81
2022/11/06 01:26:54;;;;;;;19.98;18.65;;;13.50;99.90;;;;;;4953466;28;20046;-82
2022/11/06 01:29:20;;;;;;;20.42;18.90;;;13.60;99.90;;;;;;4984666;28;20057;-81
2022/11/06 01:31:48;;;;;;;20.80;19.00;;;13.60;99.90;;;;;;4990920;28;20070;-81
2022/11/06 01:34:14;;;;;;;20.83;19.08;;;13.60;99.90;;;;;;4978199;28;20404;-82
2022/11/06 01:36:41;;;;;;;19.63;18.23;;;13.60;99.90;;;;;;4988515;28;20034;-82
2022/11/06 01:39:10;;;;;;;20.77;19.05;;;13.40;99.90;;;;;;4979896;28;20035;-82
2022/11/06 01:41:45;;;;;;;20.27;18.63;;;13.40;99.90;;;;;;4987533;28;20387;-82
2022/11/06 01:44:42;;;;;;;20.55;18.75;;;13.40;99.90;;;;;;4993397;28;20027;-81
2022/11/06 01:47:25;;;;;;;20.77;18.75;;;13.50;99.90;;;;;;4992537;28;20042;-82
2022/11/06 01:49:54;;;;;;;20.80;19.13;;;13.50;99.90;;;;;;4996157;28;20030;-82
2022/11/06 01:52:20;;;;;;;21.40;19.77;;;13.60;99.90;;;;;;4991196;28;20057;-82
2022/11/06 01:54:47;;;;;;;20.88;19.30;;;13.50;99.90;;;;;;4998936;28;20037;-82
2022/11/06 01:57:13;;;;;;;21.88;20.02;;;13.50;99.90;;;;;;4982665;28;20488;-81
2022/11/06 01:59:42;;;;;;;22.40;20.70;;;13.60;99.90;;;;;;4979772;28;20038;-82
2022/11/06 02:02:08;;;;;;;22.88;21.10;;;13.60;99.90;;;;;;4985728;28;20065;-82
2022/11/06 02:04:42;;;;;;;22.40;20.50;;;13.60;99.90;;;;;;4994615;28;20029;-82
2022/11/06 02:07:08;;;;;;;22.15;20.50;;;13.60;99.90;;;;;;5000848;28;20505;-82
2022/11/06 02:09:34;;;;;;;23.92;21.98;;;13.60;99.90;;;;;;4993449;28;20038;-81
2022/11/06 02:12:31;;;;;;;23.45;21.65;;;13.60;99.90;;;;;;4976730;28;20042;-82
2022/11/06 02:15:10;;;;;;;22.20;20.40;;;13.50;99.90;;;;;;4986896;28;20042;-82
2022/11/06 02:17:45;;;;;;;21.90;20.27;;;13.50;99.90;;;;;;4983126;28;20057;-82
2022/11/06 02:20:11;;;;;;;22.60;20.77;;;13.50;99.90;;;;;;4985844;28;20399;-82
2022/11/06 02:23:01;;;;;;;23.85;21.65;;;13.60;99.90;;;;;;4994272;28;20038;-82
2022/11/06 02:25:31;;;;;;;22.07;20.20;;;13.50;99.90;;;;;;4985716;28;20690;-81
2022/11/06 02:28:08;;;;;;;23.08;21.35;;;13.50;99.90;;;;;;4998289;28;20030;-81
2022/11/06 02:30:38;;;;;;;23.88;22.08;;;13.50;99.90;;;;;;4975476;28;20026;-82
2022/11/06 02:33:27;;;;;;;22.60;20.58;;;13.60;99.90;;;;;;4992182;28;20049;-82
2022/11/06 02:36:11;;;;;;;18.85;17.58;;;13.60;99.90;;;;;;4978919;28;20034;-82
2022/11/06 02:38:46;;;;;;;21.63;19.83;;;13.50;99.90;;;;;;5002900;28;20378;-82
2022/11/06 02:41:24;;;;;;;19.35;17.90;;;13.40;99.90;;;;;;4987613;28;20017;-82
2022/11/06 02:43:53;;;;;;;20.02;18.48;;;13.50;99.90;;;;;;4975477;28;20502;-82
2022/11/06 02:46:21;;;;;;;20.63;18.75;;;13.50;99.90;;;;;;4996776;28;20026;-82
2022/11/06 02:48:49;;;;;;;20.45;18.85;;;13.60;99.90;;;;;;4995840;28;20037;-82
2022/11/06 02:51:25;;;;;;;19.77;18.00;;;13.50;99.90;;;;;;4986133;28;20030;-82
2022/11/06 02:53:51;;;;;;;21.73;20.02;;;13.50;99.90;;;;;;4990959;28;20042;-81
2022/11/06 02:56:19;;;;;;;22.80;20.92;;;13.50;99.90;;;;;;4981844;28;20026;-81
2022/11/06 02:58:51;;;;;;;22.10;20.38;;;13.40;99.90;;;;;;4978611;28;20073;-81
2022/11/06 03:01:28;;;;;;;;;;;13.50;99.90;;;;;;4987902;28;20054;-82
2022/11/06 03:03:56;;;;;;;20.52;18.80;;;13.50;99.90;;;;;;4989990;28;19917;-82
2022/11/06 03:06:37;;;;;;;21.50;19.98;;;13.50;99.90;;;;;;4971775;28;20035;-82
2022/11/06 03:09:09;;;;;;;21.50;20.08;;;13.40;99.90;;;;;;4971502;28;20391;-82
2022/11/06 03:11:37;;;;;;;22.45;20.75;;;13.40;99.90;;;;;;4976302;28;20049;-82
2022/11/06 03:14:09;;;;;;;22.13;20.63;;;13.40;99.90;;;;;;4975973;28;20045;-83
2022/11/06 03:16:41;;;;;;;21.15;19.48;;;13.40;99.90;;;;;;4992802;28;20045;-82
2022/11/06 03:19:33;;;;;;;23.02;21.42;;;13.40;99.90;;;;;;4981884;28;20046;-82
2022/11/06 03:22:09;;;;;;;22.33;20.55;;;13.40;99.90;;;;;;4973736;28;20034;-82
2022/11/06 03:25:12;;;;;;;21.70;20.08;;;13.40;99.90;;;;;;4999008;28;20030;-82
2022/11/06 03:27:42;;;;;;;21.92;20.15;;;13.40;99.90;;;;;;4988450;28;20038;-82
2022/11/06 03:30:09;;;;;;;22.05;20.42;;;13.40;99.90;;;;;;4975170;28;20026;-82
2022/11/06 03:32:53;;;;;;;20.95;19.45;;;13.40;99.90;;;;;;4965330;28;20035;-83
2022/11/06 03:35:22;;;;;;;20.35;18.63;;;13.40;99.90;;;;;;4992907;28;20038;-82
2022/11/06 03:38:02;;;;;;;20.45;18.60;;;13.40;99.90;;;;;;4960360;28;20043;-82
2022/11/06 03:40:30;;;;;;;21.48;19.70;;;13.30;99.90;;;;;;4974656;28;20030;-81
2022/11/06 03:42:58;;;;;;;20.73;19.35;;;13.30;99.90;;;;;;4992412;28;20023;-82
2022/11/06 03:45:24;;;;;;;22.48;20.58;;;13.30;99.90;;;;;;4993732;28;20363;-82
2022/11/06 03:48:00;;;;;;;21.98;20.48;;;13.40;99.90;;;;;;4987882;28;20042;-82
2022/11/06 03:50:32;;;;;;;21.35;19.85;;;13.40;99.90;;;;;;5003147;28;20034;-83
2022/11/06 03:53:05;;;;;;;22.27;20.75;;;13.30;99.90;;;;;;4964033;28;20499;-82
2022/11/06 03:55:35;;;;;;;22.75;20.65;;;13.30;99.90;;;;;;4959936;28;20038;-82
2022/11/06 03:58:07;;;;;;;21.80;19.70;;;13.40;99.90;;;;;;4980506;28;20037;-82
2022/11/06 04:00:34;;;;;;;20.60;19.17;;;13.30;99.90;;;;;;4992858;28;20049;-82
2022/11/06 04:03:05;;;;;;;21.30;19.55;;;13.30;99.90;;;;;;4992327;28;20391;-81
2022/11/06 04:05:37;;;;;;;23.40;21.27;;;13.30;99.90;;;;;;4992650;28;20037;-80
2022/11/06 04:16:19;;;;;;;23.08;21.40;;;13.20;99.90;;;;;;4963713;28;20042;-80
2022/11/06 04:18:45;;;;;;;22.63;21.02;;;13.10;99.90;;;;;;4971585;28;20039;-79
2022/11/06 04:21:21;;;;;;;23.38;21.35;;;13.00;99.90;;;;;;4972304;28;20042;-80
2022/11/06 04:27:17;;;;;;;25.02;22.98;;;13.00;99.90;;;;;;4987880;28;20037;-80
2022/11/06 04:30:06;;;;;;;25.05;23.05;;;13.00;99.90;;;;;;4976855;28;20094;-80
2022/11/06 04:33:10;;;;;;;26.02;23.80;;;13.00;99.90;;;;;;4979508;28;20042;-80
2022/11/06 04:35:42;;;;;;;26.80;24.58;;;12.80;99.90;;;;;;4990561;28;20042;-79
2022/11/06 04:38:33;;;;;;;26.85;24.48;;;12.70;99.90;;;;;;4986950;28;20027;-79
2022/11/06 04:41:19;;;;;;;26.38;24.08;;;12.70;99.90;;;;;;4973522;28;20031;-79
2022/11/06 04:43:46;;;;;;;26.70;24.85;;;12.60;99.90;;;;;;4992041;28;20034;-79
2022/11/06 04:46:19;;;;;;;26.83;24.95;;;12.60;99.90;;;;;;4960544;28;20143;-80
2022/11/06 04:48:45;;;;;;;26.77;24.67;;;12.50;99.90;;;;;;4973396;28;20067;-80
2022/11/06 04:51:12;;;;;;;25.65;23.50;;;12.50;99.90;;;;;;5000246;28;20038;-80
2022/11/06 04:53:38;;;;;;;26.52;24.63;;;12.50;99.90;;;;;;4991655;28;20061;-80
2022/11/06 04:56:16;;;;;;;27.40;25.25;;;12.50;99.90;;;;;;4960369;28;20382;-80
2022/11/06 04:58:42;;;;;;;28.40;26.20;;;12.50;99.90;;;;;;4986677;28;20470;-79
2022/11/06 05:01:09;;;;;;;28.67;26.02;;;12.50;99.90;;;;;;4983439;28;20038;-79
2022/11/06 05:03:35;;;;;;;27.85;25.90;;;12.50;99.90;;;;;;4981675;28;20507;-78
2022/11/06 05:06:01;;;;;;;100.88;29.02;;;12.50;99.90;;;;;;4973026;28;20031;-79
2022/11/06 05:08:27;;;;;;;28.13;26.20;;;12.50;99.90;;;;;;4985338;28;20423;-79
2022/11/06 05:10:53;;;;;;;29.33;26.98;;;12.60;99.90;;;;;;4983462;28;20031;-79
2022/11/06 05:13:19;;;;;;;29.42;27.25;;;12.60;99.90;;;;;;4987368;28;20487;-79
2022/11/06 05:15:45;;;;;;;29.50;27.08;;;12.50;99.90;;;;;;4974399;28;20041;-79
2022/11/06 05:18:11;;;;;;;27.63;25.92;;;12.40;99.90;;;;;;4985774;28;20510;-79
2022/11/06 05:20:37;;;;;;;26.95;24.75;;;12.50;99.90;;;;;;4975369;28;20049;-79
2022/11/06 05:23:04;;;;;;;36.33;26.90;;;12.40;99.90;;;;;;4989846;28;20368;-79
2022/11/06 05:25:32;;;;;;;27.23;24.98;;;12.40;99.90;;;;;;4991028;28;20049;-79
2022/11/06 05:27:58;;;;;;;27.17;25.05;;;12.40;99.90;;;;;;4971230;28;20027;-79
2022/11/06 05:30:24;;;;;;;35.75;32.65;;;12.30;99.90;;;;;;4993143;28;20039;-80
2022/11/06 05:32:50;;;;;;;33.33;30.58;;;12.40;99.90;;;;;;4986754;28;20048;-80
2022/11/06 05:35:17;;;;;;;37.90;35.47;;;12.30;99.90;;;;;;5002737;28;20027;-80
2022/11/06 05:37:43;;;;;;;37.65;34.88;;;12.30;99.90;;;;;;4992853;28;20395;-80
2022/11/06 05:40:09;;;;;;;38.33;35.50;;;12.30;99.90;;;;;;5003189;28;20360;-79
2022/11/06 05:42:37;;;;;;;36.70;33.90;;;12.20;99.90;;;;;;4992272;28;20045;-80
2022/11/06 05:45:03;;;;;;;40.05;36.95;;;12.20;99.90;;;;;;4986069;28;20033;-79
2022/11/06 05:47:29;;;;;;;40.83;38.22;;;12.20;99.90;;;;;;4976280;28;20091;-80
2022/11/06 05:49:55;;;;;;;44.17;41.10;;;12.10;99.90;;;;;;4977728;28;20034;-79
2022/11/06 05:52:22;;;;;;;40.85;37.97;;;12.20;99.90;;;;;;4988539;28;20046;-79
2022/11/06 05:54:48;;;;;;;41.95;39.00;;;12.10;99.90;;;;;;4986671;28;20026;-79
2022/11/06 05:57:14;;;;;;;37.28;34.53;;;12.20;99.90;;;;;;4967034;28;20038;-79
2022/11/06 05:59:40;;;;;;;39.35;36.95;;;12.10;99.90;;;;;;4995693;28;20034;-79
2022/11/06 06:02:07;;;;;;;36.55;33.70;;;12.10;99.90;;;;;;5002674;28;20046;-79
2022/11/06 06:04:33;;;;;;;35.28;32.80;;;12.10;99.90;;;;;;5000248;28;20041;-79
2022/11/06 06:06:59;;;;;;;37.83;35.20;;;12.10;99.90;;;;;;4982077;28;20034;-80
2022/11/06 06:09:25;;;;;;;36.70;34.30;;;12.00;99.90;;;;;;5002739;28;20482;-80
2022/11/06 06:11:52;;;;;;;39.15;36.08;;;12.00;99.90;;;;;;4981071;28;20045;-81
2022/11/06 06:14:19;;;;;;;39.03;36.38;;;12.10;99.90;;;;;;4986327;28;20051;-82
2022/11/06 06:16:45;;;;;;;37.20;34.08;;;12.10;99.90;;;;;;5000407;28;20029;-78
2022/11/06 06:19:11;;;;;;;34.28;31.80;;;12.10;99.90;;;;;;5004950;28;20112;-79
2022/11/06 06:21:37;;;;;;;34.55;31.52;;;12.10;99.90;;;;;;4989555;28;20029;-78
2022/11/06 06:24:04;;;;;;;32.30;30.20;;;12.20;99.90;;;;;;5006352;28;20051;-78
2022/11/06 06:26:30;;;;;;;34.40;32.08;;;12.20;99.90;;;;;;4990352;28;20030;-78
2022/11/06 06:28:56;;;;;;;33.25;31.00;;;12.10;99.90;;;;;;5004650;28;20029;-79
2022/11/06 06:31:22;;;;;;;30.33;28.02;;;12.10;99.90;;;;;;4974644;28;20498;-78
2022/11/06 06:33:48;;;;;;;30.08;27.88;;;12.10;99.90;;;;;;4989323;28;20039;-78
2022/11/06 06:36:14;;;;;;;32.35;30.17;;;12.00;99.90;;;;;;4993176;28;20474;-78
2022/11/06 06:38:41;;;;;;;31.55;29.38;;;12.00;99.90;;;;;;5002379;28;20049;-78
2022/11/06 06:41:07;;;;;;;27.95;25.92;;;12.10;99.90;;;;;;4985095;28;20473;-78
2022/11/06 06:43:33;;;;;;;27.02;24.40;;;12.00;99.90;;;;;;5002279;28;20030;-78
2022/11/06 06:46:00;;;;;;;28.02;26.13;;;12.10;99.90;;;;;;4995121;28;20037;-78
2022/11/06 06:48:26;;;;;;;27.73;25.08;;;12.00;99.90;;;;;;4995102;28;20035;-78
2022/11/06 06:50:56;;;;;;;27.55;25.20;;;12.00;99.90;;;;;;4978284;28;20030;-78
2022/11/06 06:53:22;;;;;;;27.67;25.17;;;12.00;99.90;;;;;;4989792;28;20058;-78
2022/11/06 06:55:48;;;;;;;25.55;23.45;;;12.00;99.90;;;;;;4994306;28;20379;-78
2022/11/06 06:58:15;;;;;;;25.40;23.58;;;11.90;99.90;;;;;;4969729;28;20035;-80
2022/11/06 07:00:41;;;;;;;24.50;22.55;;;11.90;99.90;;;;;;5008620;28;20034;-80
2022/11/06 07:03:07;;;;;;;26.20;24.08;;;11.90;99.90;;;;;;4970881;28;20069;-80
2022/11/06 07:05:33;;;;;;;26.92;24.92;;;11.80;99.90;;;;;;4995434;28;20403;-79
2022/11/06 07:07:59;;;;;;;27.63;25.33;;;11.90;99.90;;;;;;4994833;28;20034;-79
2022/11/06 07:10:25;;;;;;;25.42;23.15;;;12.00;99.90;;;;;;4995296;28;20434;-79
2022/11/06 07:12:51;;;;;;;25.13;23.13;;;11.90;99.90;;;;;;5007505;28;20041;-78
2022/11/06 07:15:17;;;;;;;23.15;21.27;;;11.90;99.90;;;;;;5014302;28;20463;-79
2022/11/06 07:17:43;;;;;;;24.05;21.77;;;11.90;99.90;;;;;;4996072;28;20049;-80
2022/11/06 07:20:10;;;;;;;24.38;22.38;;;11.90;99.90;;;;;;4967711;28;20046;-82
2022/11/06 07:22:36;;;;;;;25.10;22.67;;;11.90;99.90;;;;;;5003990;28;20379;-81
2022/11/06 07:25:03;;;;;;;23.55;21.65;;;11.90;99.90;;;;;;4984719;28;20030;-81
2022/11/06 07:27:29;;;;;;;22.40;20.63;;;11.90;99.90;;;;;;4996904;28;20046;-81
2022/11/06 07:29:55;;;;;;;23.08;21.17;;;11.80;99.90;;;;;;4998334;28;20045;-82
2022/11/06 07:32:21;;;;;;;24.35;22.13;;;11.80;99.90;;;;;;5009208;28;20434;-82
2022/11/06 07:34:47;;;;;;;25.05;23.08;;;11.80;99.90;;;;;;4999084;28;20042;-83
2022/11/06 07:37:13;;;;;;;33.83;30.90;;;11.90;99.90;;;;;;4993306;28;20035;-83
2022/11/06 07:39:39;;;;;;;39.50;35.72;;;12.10;99.90;;;;;;4991184;28;20035;-78
2022/11/06 07:42:05;;;;;;;26.90;24.58;;;12.30;99.90;;;;;;5000919;28;20035;-79
2022/11/06 07:44:31;;;;;;;24.15;22.10;;;12.20;99.90;;;;;;4972759;28;20130;-79
2022/11/06 07:46:57;;;;;;;25.17;23.02;;;12.10;99.90;;;;;;4990363;28;20027;-84
2022/11/06 07:49:23;;;;;;;25.02;22.70;;;12.10;99.90;;;;;;5003979;28;20018;-90
2022/11/06 07:51:50;;;;;;;25.55;23.13;;;12.10;99.90;;;;;;5009527;28;20041;-81
2022/11/06 07:54:16;;;;;;;24.35;22.40;;;12.00;99.90;;;;;;4985820;28;20057;-82
2022/11/06 07:56:42;;;;;;;24.52;22.58;;;11.90;99.90;;;;;;4989906;28;20360;-82
2022/11/06 07:59:08;;;;;;;23.13;21.20;;;11.90;99.90;;;;;;4991633;28;20045;-88
2022/11/06 08:01:34;;;;;;;24.38;22.25;;;12.00;99.90;;;;;;4988849;28;20423;-85
2022/11/06 08:04:00;;;;;;;25.35;23.45;;;12.00;99.90;;;;;;4971962;28;20379;-86
2022/11/06 08:06:26;;;;;;;24.83;22.38;;;11.90;99.90;;;;;;4990077;28;20141;-84
2022/11/06 08:08:52;;;;;;;25.33;23.08;;;11.90;99.90;;;;;;4986847;28;20031;-85
2022/11/06 08:11:18;;;;;;;24.20;22.38;;;11.90;99.90;;;;;;4981091;28;20043;-84
2022/11/06 08:13:44;;;;;;;53.58;48.88;;;11.90;99.90;;;;;;4994267;28;20479;-85
2022/11/06 08:16:12;;;;;;;34.45;31.65;;;12.10;99.90;;;;;;4976235;28;20042;-82
2022/11/06 08:18:38;;;;;;;34.67;31.88;;;12.50;99.90;;;;;;4991935;28;20054;-80
2022/11/06 08:21:05;;;;;;;32.92;30.40;;;12.50;99.90;;;;;;4986063;28;20030;-87
2022/11/06 08:23:32;;;;;;;36.13;33.65;;;12.50;99.90;;;;;;4993057;28;20064;-87
2022/11/06 08:25:59;;;;;;;34.58;31.38;;;12.50;99.90;;;;;;4992943;28;20397;-83
2022/11/06 08:28:26;;;;;;;32.97;30.52;;;12.70;99.90;;;;;;5003214;28;20394;-85
2022/11/06 08:30:52;;;;;;;37.33;34.53;;;12.80;99.90;;;;;;4994047;28;20030;-84
2022/11/06 08:33:18;;;;;;;34.58;31.80;;;13.00;99.90;;;;;;5005270;28;20065;-84
2022/11/06 08:35:44;;;;;;;28.23;26.17;;;13.10;99.90;;;;;;4997943;28;20030;-83
2022/11/06 08:38:10;;;;;;;29.50;26.85;;;13.20;99.90;;;;;;4988708;28;20049;-84
2022/11/06 08:40:37;;;;;;;23.75;21.73;;;13.10;99.90;;;;;;4997263;28;20490;-84
2022/11/06 08:43:06;;;;;;;26.85;24.00;;;13.00;99.90;;;;;;4992713;28;20030;-84
2022/11/06 08:45:38;;;;;;;33.65;30.95;;;13.00;99.90;;;;;;5004731;28;20594;-86
2022/11/06 08:48:05;;;;;;;42.63;38.92;;;13.10;99.90;;;;;;4995484;28;20478;-84
2022/11/06 08:50:31;;;;;;;57.47;51.88;;;13.20;99.90;;;;;;4992859;28;20033;-86
2022/11/06 08:52:59;;;;;;;37.83;34.78;;;13.30;99.90;;;;;;4979359;28;20037;-84
2022/11/06 08:55:26;;;;;;;36.33;32.92;;;13.20;99.90;;;;;;4991926;28;20030;-87
2022/11/06 08:57:54;;;;;;;42.53;38.65;;;13.10;99.90;;;;;;4999985;28;20382;-88
2022/11/06 09:00:21;;;;;;;31.58;29.10;;;13.00;99.90;;;;;;4976631;28;20616;-84
2022/11/06 09:02:47;;;;;;;37.58;34.42;;;13.10;99.90;;;;;;4965911;28;20042;-85
2022/11/06 09:05:13;;;;;;;27.80;25.65;;;13.00;99.90;;;;;;4995988;28;20035;-84
2022/11/06 09:07:39;;;;;;;35.78;32.92;;;13.00;99.90;;;;;;5006114;28;20037;-84
2022/11/06 09:10:05;;;;;;;33.08;30.85;;;12.90;99.90;;;;;;4978805;28;20474;-84
2022/11/06 09:12:31;;;;;;;29.38;26.95;;;13.00;99.90;;;;;;4995166;28;20723;-86
2022/11/06 09:14:57;;;;;;;29.63;27.05;;;13.00;99.90;;;;;;4986373;28;20053;-85
2022/11/06 09:17:24;;;;;;;36.92;33.72;;;13.10;99.90;;;;;;4971044;28;20394;-83
2022/11/06 09:19:50;;;;;;;37.25;34.42;;;13.00;99.90;;;;;;4974164;28;20025;-86
2022/11/06 09:22:16;;;;;;;38.47;35.17;;;13.00;99.90;;;;;;4939846;28;20042;-84
2022/11/06 09:24:42;;;;;;;32.42;30.15;;;13.00;99.90;;;;;;4984845;28;20038;-84
2022/11/06 09:27:09;;;;;;;35.17;32.45;;;13.00;99.90;;;;;;5008290;28;20021;-86
2022/11/06 09:29:39;;;;;;;37.78;34.38;;;13.00;99.90;;;;;;4990450;28;20494;-85
2022/11/06 09:32:06;;;;;;;32.97;30.52;;;13.00;99.90;;;;;;4994128;28;20034;-89
2022/11/06 09:34:32;;;;;;;35.83;33.33;;;13.10;99.90;;;;;;4997665;28;20490;-92
2022/11/06 09:37:00;;;;;;;34.42;31.85;;;13.10;99.90;;;;;;4986300;28;20019;-91
2022/11/06 09:39:26;;;;;;;35.38;32.58;;;13.00;99.90;;;;;;4980763;28;20394;-94
2022/11/06 09:41:58;;;;;;;30.80;28.40;;;12.90;99.90;;;;;;4996226;28;20026;-90
2022/11/06 09:44:52;;;;;;;29.38;26.98;;;12.80;99.90;;;;;;4977775;28;20506;-87
2022/11/06 09:47:20;;;;;;;31.60;29.52;;;12.80;99.90;;;;;;4986136;28;20032;-87
2022/11/06 09:49:51;;;;;;;29.25;26.65;;;12.80;99.90;;;;;;4978691;28;20027;-84
2022/11/06 09:52:30;;;;;;;31.95;29.50;;;12.70;99.90;;;;;;4956775;28;20034;-90
2022/11/06 09:55:19;;;;;;;31.20;29.08;;;12.70;99.90;;;;;;4967388;28;20043;-88
2022/11/06 09:57:56;;;;;;;31.33;29.00;;;12.70;99.90;;;;;;4991235;28;20483;-91
2022/11/06 10:00:22;;;;;;;33.85;30.77;;;12.70;99.90;;;;;;4985018;28;20459;-92
2022/11/06 10:03:17;;;;;;;142.85;69.85;;;12.80;99.90;;;;;;4996221;28;20042;-90
2022/11/06 10:05:43;;;;;;;34.13;31.60;;;13.00;99.90;;;;;;4972477;28;20038;-89
2022/11/06 10:08:16;;;;;;;33.17;30.85;;;12.90;99.90;;;;;;4981886;28;20035;-92
2022/11/06 10:11:03;;;;;;;51.55;46.45;;;12.80;99.90;;;;;;4965286;28;20030;-91
2022/11/06 10:13:32;;;;;;;34.50;31.90;;;12.70;99.90;;;;;;4974688;28;20042;-91
2022/11/06 10:16:25;;;;;;;36.03;33.20;;;12.70;99.90;;;;;;4991683;28;20038;-90
2022/11/06 10:19:04;;;;;;;32.72;30.42;;;12.90;99.90;;;;;;4992738;28;20041;-93
2022/11/06 10:21:47;;;;;;;34.05;31.55;;;13.00;99.90;;;;;;4992458;28;20034;-91
2022/11/06 10:24:22;;;;;;;30.67;28.33;;;13.00;99.90;;;;;;4960969;28;20033;-88
2022/11/06 10:26:54;;;;;;;36.67;34.17;;;13.10;99.90;;;;;;4983958;28;20041;-87
2022/11/06 10:29:20;;;;;;;33.53;30.95;;;13.10;99.90;;;;;;4966189;28;20033;-87
2022/11/06 10:31:55;;;;;;;34.60;32.22;;;13.10;99.90;;;;;;4988541;28;20537;-85
2022/11/06 10:34:33;;;;;;;42.65;38.17;;;13.00;99.90;;;;;;4977723;28;20410;-83
2022/11/06 10:37:11;;;;;;;34.40;32.08;;;13.00;99.90;;;;;;4954596;28;20509;-89
2022/11/06 10:39:37;;;;;;;35.90;33.28;;;13.00;99.90;;;;;;4976311;28;20054;-88
2022/11/06 10:42:13;;;;;;;33.10;30.77;;;13.10;99.90;;;;;;4983683;28;20039;-89
2022/11/06 10:45:03;;;;;;;41.65;39.00;;;13.20;99.90;;;;;;4962980;28;20051;-89
2022/11/06 10:47:35;;;;;;;35.60;32.92;;;13.30;99.90;;;;;;4946979;28;20042;-92
2022/11/06 10:50:02;;;;;;;39.80;36.72;;;13.30;99.90;;;;;;4973651;28;20364;-90
2022/11/06 10:52:38;;;;;;;40.13;36.65;;;13.40;99.90;;;;;;4971397;28;20042;-95
2022/11/06 10:55:31;;;;;;;36.92;34.45;;;13.30;99.90;;;;;;4978177;28;20050;-95
2022/11/06 10:58:00;;;;;;;39.63;37.15;;;13.30;99.90;;;;;;4962401;28;20046;-89
2022/11/06 11:00:26;;;;;;;38.47;35.60;;;13.30;99.90;;;;;;4942849;28;20046;-92
2022/11/06 11:02:56;;;;;;;37.33;35.05;;;13.30;99.90;;;;;;4979056;28;20033;-89
2022/11/06 11:05:23;;;;;;;39.15;36.55;;;13.40;99.90;;;;;;4965329;28;20046;-90
2022/11/06 11:07:50;;;;;;;40.63;37.97;;;13.40;99.90;;;;;;4945287;28;20045;-93
2022/11/06 11:10:35;;;;;;;34.97;32.72;;;13.50;99.90;;;;;;4981365;28;20043;-95
2022/11/06 11:13:03;;;;;;;36.22;33.95;;;13.50;99.90;;;;;;4980370;28;20034;-94
2022/11/06 11:15:37;;;;;;;42.45;39.95;;;13.50;99.90;;;;;;4952013;28;20042;-93
2022/11/06 11:18:08;;;;;;;37.97;35.20;;;13.60;99.90;;;;;;4954443;28;20181;-91
2022/11/06 11:20:35;;;;;;;42.20;39.20;;;13.70;99.90;;;;;;4978721;28;20447;-85
2022/11/06 11:23:13;;;;;;;39.08;36.80;;;13.70;99.90;;;;;;4970965;28;20347;-90
2022/11/06 11:25:41;;;;;;;42.20;39.35;;;13.80;99.90;;;;;;4997247;28;20027;-92
2022/11/06 11:28:21;;;;;;;41.00;38.47;;;13.90;99.90;;;;;;4996010;28;20045;-91
2022/11/06 11:31:05;;;;;;;44.50;41.15;;;14.00;99.90;;;;;;4984868;28;20031;-90
2022/11/06 11:33:31;;;;;;;36.25;34.05;;;14.00;99.90;;;;;;4974274;28;20038;-90
2022/11/06 11:35:57;;;;;;;38.70;36.38;;;14.00;99.90;;;;;;4961880;28;20402;-93
2022/11/06 11:38:24;;;;;;;38.42;35.92;;;14.00;99.90;;;;;;4977578;28;20501;-93
2022/11/06 11:40:51;;;;;;;39.60;37.20;;;14.10;99.90;;;;;;4982511;28;20049;-88
2022/11/06 11:43:20;;;;;;;40.90;38.58;;;14.10;99.90;;;;;;4963182;28;20035;-93
2022/11/06 11:46:07;;;;;;;41.53;38.92;;;14.10;99.90;;;;;;4998882;28;20026;-92
2022/11/06 11:48:42;;;;;;;39.55;37.10;;;14.10;99.90;;;;;;4974278;28;20042;-90
2022/11/06 11:51:17;;;;;;;41.45;39.15;;;14.10;99.90;;;;;;4971901;28;20034;-89
2022/11/06 11:53:43;;;;;;;41.85;39.35;;;14.10;99.90;;;;;;4992141;28;20049;-91
2022/11/06 11:56:14;;;;;;;45.45;42.67;;;14.10;99.90;;;;;;4976408;28;20396;-94
2022/11/06 11:58:40;;;;;;;48.42;45.83;;;14.20;99.90;;;;;;4960097;28;20495;-88
2022/11/06 12:01:08;;;;;;;46.65;43.80;;;14.30;99.90;;;;;;4974087;28;20042;-91
2022/11/06 12:03:39;;;;;;;48.85;45.78;;;14.20;99.90;;;;;;4995497;28;20046;-89
2022/11/06 12:06:07;;;;;;;;;;;14.20;99.90;;;;;;4971189;28;20526;-88
2022/11/06 12:08:33;;;;;;;43.05;40.10;;;14.20;99.90;;;;;;4958493;28;20260;-87
2022/11/06 12:11:02;;;;;;;42.88;40.28;;;14.20;99.90;;;;;;4989973;28;20041;-92
2022/11/06 12:13:28;;;;;;;52.00;48.55;;;14.20;99.90;;;;;;4973592;28;20169;-94
2022/11/06 12:15:54;;;;;;;42.67;39.85;;;14.20;99.90;;;;;;4987889;28;20049;-89
2022/11/06 12:18:33;;;;;;;43.72;41.22;;;14.20;99.90;;;;;;4983000;28;20054;-92
2022/11/06 12:21:26;;;;;;;47.22;43.65;;;14.20;99.90;;;;;;4960659;28;20053;-93
2022/11/06 12:23:55;;;;;;;47.40;44.42;;;14.20;99.90;;;;;;4993130;28;20038;-88
2022/11/06 12:26:28;;;;;;;50.60;47.35;;;14.30;99.90;;;;;;4990431;28;20030;-89
2022/11/06 12:29:13;;;;;;;55.45;50.80;;;14.50;99.90;;;;;;4992441;28;20090;-83
2022/11/06 12:31:39;;;;;;;54.33;49.80;;;14.50;99.90;;;;;;4976863;28;20193;-91
2022/11/06 12:34:09;;;;;;;47.90;44.25;;;14.60;99.90;;;;;;4997307;28;20034;-93
2022/11/06 12:36:39;;;;;;;47.50;44.03;;;14.60;99.90;;;;;;4951430;28;20027;-91
2022/11/06 12:39:26;;;;;;;48.20;45.15;;;14.60;99.90;;;;;;4959224;28;20035;-90
2022/11/06 12:41:52;;;;;;;45.53;42.70;;;14.70;99.90;;;;;;4964975;28;20031;-91
2022/11/06 12:44:18;;;;;;;44.15;41.47;;;14.80;99.90;;;;;;4966515;28;20049;-82
2022/11/06 12:46:47;;;;;;;46.97;43.45;;;14.90;99.90;;;;;;4965231;28;20031;-81
2022/11/06 12:49:35;;;;;;;56.45;52.15;;;14.90;99.90;;;;;;4998510;28;20022;-80
2022/11/06 12:52:23;;;;;;;58.45;54.35;;;15.00;99.90;;;;;;5000832;28;20026;-81
2022/11/06 12:55:10;;;;;;;58.25;54.47;;;15.10;99.90;;;;;;4987123;28;20042;-84
2022/11/06 12:58:18;;;;;;;66.63;61.15;;;15.10;99.90;;;;;;4989530;28;20193;-84